sensor_id;sensor_type;location;lat;lon;timestamp;pressure;altitude;pressure_sealevel;temperature;humidity
61786;BME280;47692;53.714;11.372;2023-07-31T00:00:55;100724.75;;;12.88;100.00
61786;BME280;47692;53.714;11.372;2023-07-31T00:03:21;100719.50;;;12.88;100.00
61786;BME280;47692;53.714;11.372;2023-07-31T00:05:46;100718.00;;;12.81;100.00
61786;BME280;47692;53.714;11.372;2023-07-31T00:08:11;100711.72;;;12.85;100.00
61786;BME280;47692;53.714;11.372;2023-07-31T00:10:36;100707.50;;;12.81;100.00
61786;BME280;47692;53.714;11.372;2023-07-31T00:13:02;100717.78;;;12.87;100.00
61786;BME280;47692;53.714;11.372;2023-07-31T00:15:27;100719.59;;;12.85;100.00
61786;BME280;47692;53.714;11.372;2023-07-31T00:17:52;100707.44;;;12.84;100.00
61786;BME280;47692;53.714;11.372;2023-07-31T00:20:18;100712.81;;;12.80;100.00
61786;BME280;47692;53.714;11.372;2023-07-31T00:22:43;100699.59;;;12.83;100.00
61786;BME280;47692;53.714;11.372;2023-07-31T00:25:08;100693.38;;;12.87;100.00
61786;BME280;47692;53.714;11.372;2023-07-31T00:27:34;100696.84;;;12.87;100.00
61786;BME280;47692;53.714;11.372;2023-07-31T00:29:59;100694.31;;;12.84;100.00
61786;BME280;47692;53.714;11.372;2023-07-31T00:32:24;100696.06;;;12.84;100.00
61786;BME280;47692;53.714;11.372;2023-07-31T00:34:49;100693.59;;;12.79;100.00
61786;BME280;47692;53.714;11.372;2023-07-31T00:37:15;100686.66;;;12.78;100.00
61786;BME280;47692;53.714;11.372;2023-07-31T00:39:40;100676.19;;;12.78;100.00
61786;BME280;47692;53.714;11.372;2023-07-31T00:42:06;100677.88;;;12.79;100.00
61786;BME280;47692;53.714;11.372;2023-07-31T00:44:32;100674.41;;;12.79;100.00
61786;BME280;47692;53.714;11.372;2023-07-31T00:46:57;100675.88;;;12.87;100.00
61786;BME280;47692;53.714;11.372;2023-07-31T00:49:24;100667.25;;;12.84;100.00
61786;BME280;47692;53.714;11.372;2023-07-31T00:51:50;100660.47;;;12.78;100.00
61786;BME280;47692;53.714;11.372;2023-07-31T00:54:15;100653.78;;;12.68;100.00
61786;BME280;47692;53.714;11.372;2023-07-31T00:56:41;100661.56;;;12.71;100.00
61786;BME280;47692;53.714;11.372;2023-07-31T00:59:07;100647.78;;;12.64;100.00
61786;BME280;47692;53.714;11.372;2023-07-31T01:01:33;100672.25;;;12.65;100.00
61786;BME280;47692;53.714;11.372;2023-07-31T01:03:58;100659.22;;;12.61;100.00
61786;BME280;47692;53.714;11.372;2023-07-31T01:12:22;100661.97;;;12.58;100.00
61786;BME280;47692;53.714;11.372;2023-07-31T01:15:02;100648.94;;;12.55;100.00
61786;BME280;47692;53.714;11.372;2023-07-31T01:17:28;100666.31;;;12.59;100.00
61786;BME280;47692;53.714;11.372;2023-07-31T01:19:55;100675.97;;;12.57;100.00
61786;BME280;47692;53.714;11.372;2023-07-31T01:25:26;100658.53;;;12.56;100.00
61786;BME280;47692;53.714;11.372;2023-07-31T01:28:13;100655.81;;;12.59;100.00
61786;BME280;47692;53.714;11.372;2023-07-31T01:30:43;100660.25;;;12.57;100.00
61786;BME280;47692;53.714;11.372;2023-07-31T01:33:10;100645.53;;;12.53;100.00
61786;BME280;47692;53.714;11.372;2023-07-31T01:35:36;100650.78;;;12.53;100.00
61786;BME280;47692;53.714;11.372;2023-07-31T01:38:02;100652.59;;;12.51;100.00
61786;BME280;47692;53.714;11.372;2023-07-31T01:40:27;100711.19;;;12.47;100.00
61786;BME280;47692;53.714;11.372;2023-07-31T01:42:53;100657.06;;;12.48;100.00
61786;BME280;47692;53.714;11.372;2023-07-31T01:45:18;100655.28;;;12.48;100.00
61786;BME280;47692;53.714;11.372;2023-07-31T01:47:43;100657.00;;;12.49;100.00
61786;BME280;47692;53.714;11.372;2023-07-31T01:50:09;100657.81;;;12.51;100.00
61786;BME280;47692;53.714;11.372;2023-07-31T01:52:34;100641.28;;;12.51;100.00
61786;BME280;47692;53.714;11.372;2023-07-31T01:55:00;100642.94;;;12.52;100.00
61786;BME280;47692;53.714;11.372;2023-07-31T01:57:25;100651.50;;;12.58;100.00
61786;BME280;47692;53.714;11.372;2023-07-31T01:59:50;100641.91;;;12.57;100.00
61786;BME280;47692;53.714;11.372;2023-07-31T02:02:18;100641.72;;;12.64;100.00
61786;BME280;47692;53.714;11.372;2023-07-31T02:04:43;100632.97;;;12.65;100.00
61786;BME280;47692;53.714;11.372;2023-07-31T02:07:09;100642.34;;;12.70;100.00
61786;BME280;47692;53.714;11.372;2023-07-31T02:09:34;100651.88;;;12.73;100.00
61786;BME280;47692;53.714;11.372;2023-07-31T02:11:59;100642.16;;;12.76;100.00
61786;BME280;47692;53.714;11.372;2023-07-31T02:14:24;100641.31;;;12.76;100.00
61786;BME280;47692;53.714;11.372;2023-07-31T02:16:50;100630.72;;;12.79;100.00
61786;BME280;47692;53.714;11.372;2023-07-31T02:19:15;100631.53;;;12.81;100.00
61786;BME280;47692;53.714;11.372;2023-07-31T02:21:40;100621.88;;;12.83;100.00
61786;BME280;47692;53.714;11.372;2023-07-31T02:24:06;100622.00;;;12.79;100.00
61786;BME280;47692;53.714;11.372;2023-07-31T02:26:31;100625.41;;;12.82;100.00
61786;BME280;47692;53.714;11.372;2023-07-31T02:28:56;100627.19;;;12.80;100.00
61786;BME280;47692;53.714;11.372;2023-07-31T02:31:22;100621.88;;;12.83;100.00
61786;BME280;47692;53.714;11.372;2023-07-31T02:33:47;100616.63;;;12.83;100.00
61786;BME280;47692;53.714;11.372;2023-07-31T02:36:12;100654.22;;;12.82;100.00
61786;BME280;47692;53.714;11.372;2023-07-31T02:38:38;100603.53;;;12.83;100.00
61786;BME280;47692;53.714;11.372;2023-07-31T02:41:03;100667.31;;;12.82;100.00
61786;BME280;47692;53.714;11.372;2023-07-31T02:43:28;100659.44;;;12.82;100.00
61786;BME280;47692;53.714;11.372;2023-07-31T02:45:54;100668.91;;;12.86;100.00
61786;BME280;47692;53.714;11.372;2023-07-31T02:48:19;100668.16;;;12.83;100.00
61786;BME280;47692;53.714;11.372;2023-07-31T02:50:45;100689.78;;;12.89;100.00
61786;BME280;47692;53.714;11.372;2023-07-31T02:53:10;100678.28;;;12.93;100.00
61786;BME280;47692;53.714;11.372;2023-07-31T02:55:36;100711.41;;;12.96;100.00
61786;BME280;47692;53.714;11.372;2023-07-31T02:58:01;100705.31;;;12.96;100.00
61786;BME280;47692;53.714;11.372;2023-07-31T03:00:27;100719.97;;;13.01;100.00
61786;BME280;47692;53.714;11.372;2023-07-31T03:02:52;100733.19;;;12.97;100.00
61786;BME280;47692;53.714;11.372;2023-07-31T03:05:17;100733.13;;;13.00;100.00
61786;BME280;47692;53.714;11.372;2023-07-31T03:07:43;100757.59;;;12.99;100.00
61786;BME280;47692;53.714;11.372;2023-07-31T03:10:08;100762.66;;;13.05;100.00
61786;BME280;47692;53.714;11.372;2023-07-31T03:12:34;100774.19;;;12.99;100.00
61786;BME280;47692;53.714;11.372;2023-07-31T03:14:59;100781.09;;;13.02;100.00
61786;BME280;47692;53.714;11.372;2023-07-31T03:17:24;100796.78;;;13.03;100.00
61786;BME280;47692;53.714;11.372;2023-07-31T03:19:49;100798.31;;;13.09;100.00
61786;BME280;47692;53.714;11.372;2023-07-31T03:22:15;100806.31;;;13.06;100.00
61786;BME280;47692;53.714;11.372;2023-07-31T03:24:40;100826.44;;;13.05;100.00
61786;BME280;47692;53.714;11.372;2023-07-31T03:27:06;100813.16;;;13.10;100.00
61786;BME280;47692;53.714;11.372;2023-07-31T03:29:31;100843.00;;;13.06;100.00
61786;BME280;47692;53.714;11.372;2023-07-31T03:31:56;100836.91;;;13.05;100.00
61786;BME280;47692;53.714;11.372;2023-07-31T03:34:22;100857.69;;;13.12;100.00
61786;BME280;47692;53.714;11.372;2023-07-31T03:36:47;100862.75;;;13.16;100.00
61786;BME280;47692;53.714;11.372;2023-07-31T03:39:12;100870.44;;;13.22;100.00
61786;BME280;47692;53.714;11.372;2023-07-31T03:41:38;100872.28;;;13.20;100.00
61786;BME280;47692;53.714;11.372;2023-07-31T03:44:03;100892.28;;;13.23;100.00
61786;BME280;47692;53.714;11.372;2023-07-31T03:46:28;100912.38;;;13.22;100.00
61786;BME280;47692;53.714;11.372;2023-07-31T03:48:54;100919.28;;;13.27;100.00
61786;BME280;47692;53.714;11.372;2023-07-31T03:51:19;100912.19;;;13.29;100.00
61786;BME280;47692;53.714;11.372;2023-07-31T03:53:45;100916.66;;;13.27;100.00
61786;BME280;47692;53.714;11.372;2023-07-31T03:56:10;100922.59;;;13.32;100.00
61786;BME280;47692;53.714;11.372;2023-07-31T03:58:36;100929.56;;;13.33;100.00
61786;BME280;47692;53.714;11.372;2023-07-31T04:01:02;100931.44;;;13.28;100.00
61786;BME280;47692;53.714;11.372;2023-07-31T04:03:27;100953.91;;;13.38;100.00
61786;BME280;47692;53.714;11.372;2023-07-31T04:05:54;100961.78;;;13.38;100.00
61786;BME280;47692;53.714;11.372;2023-07-31T04:08:21;100958.31;;;13.36;100.00
61786;BME280;47692;53.714;11.372;2023-07-31T04:10:46;100950.28;;;13.42;100.00
61786;BME280;47692;53.714;11.372;2023-07-31T04:13:12;100964.28;;;13.41;100.00
61786;BME280;47692;53.714;11.372;2023-07-31T04:15:38;100982.56;;;13.44;100.00
61786;BME280;47692;53.714;11.372;2023-07-31T04:18:04;100996.47;;;13.48;100.00
61786;BME280;47692;53.714;11.372;2023-07-31T04:20:30;100966.84;;;13.44;100.00
61786;BME280;47692;53.714;11.372;2023-07-31T04:22:55;100950.94;;;13.49;100.00
61786;BME280;47692;53.714;11.372;2023-07-31T04:25:21;100963.91;;;13.53;100.00
61786;BME280;47692;53.714;11.372;2023-07-31T04:27:46;100969.09;;;13.56;100.00
61786;BME280;47692;53.714;11.372;2023-07-31T04:30:11;100980.53;;;13.54;100.00
61786;BME280;47692;53.714;11.372;2023-07-31T04:32:37;100970.06;;;13.52;100.00
61786;BME280;47692;53.714;11.372;2023-07-31T04:35:02;100971.84;;;13.52;100.00
61786;BME280;47692;53.714;11.372;2023-07-31T04:37:28;100959.38;;;13.58;100.00
61786;BME280;47692;53.714;11.372;2023-07-31T04:39:53;100968.97;;;13.60;100.00
61786;BME280;47692;53.714;11.372;2023-07-31T04:42:18;100978.63;;;13.59;100.00
61786;BME280;47692;53.714;11.372;2023-07-31T04:44:44;100989.13;;;13.57;100.00
61786;BME280;47692;53.714;11.372;2023-07-31T04:47:09;100979.38;;;13.63;100.00
61786;BME280;47692;53.714;11.372;2023-07-31T04:49:35;101013.31;;;13.69;100.00
61786;BME280;47692;53.714;11.372;2023-07-31T04:52:00;101012.28;;;13.73;100.00
61786;BME280;47692;53.714;11.372;2023-07-31T04:54:25;101002.56;;;13.77;100.00
61786;BME280;47692;53.714;11.372;2023-07-31T04:56:50;100999.22;;;13.71;100.00
61786;BME280;47692;53.714;11.372;2023-07-31T04:59:17;101013.97;;;13.76;100.00
61786;BME280;47692;53.714;11.372;2023-07-31T05:01:42;101019.97;;;13.79;100.00
61786;BME280;47692;53.714;11.372;2023-07-31T05:04:08;101014.72;;;13.79;100.00
61786;BME280;47692;53.714;11.372;2023-07-31T05:06:33;101015.53;;;13.81;100.00
61786;BME280;47692;53.714;11.372;2023-07-31T05:08:58;101029.44;;;13.83;100.00
61786;BME280;47692;53.714;11.372;2023-07-31T05:11:24;101031.81;;;13.93;100.00
61786;BME280;47692;53.714;11.372;2023-07-31T05:13:49;101038.81;;;13.92;100.00
61786;BME280;47692;53.714;11.372;2023-07-31T05:16:14;101031.69;;;13.96;100.00
61786;BME280;47692;53.714;11.372;2023-07-31T05:18:40;101030.78;;;13.97;100.00
61786;BME280;47692;53.714;11.372;2023-07-31T05:21:05;101041.28;;;13.97;100.00
61786;BME280;47692;53.714;11.372;2023-07-31T05:23:30;101041.22;;;14.00;100.00
61786;BME280;47692;53.714;11.372;2023-07-31T05:26:05;101028.03;;;14.01;100.00
61786;BME280;47692;53.714;11.372;2023-07-31T05:28:31;101030.47;;;14.06;100.00
61786;BME280;47692;53.714;11.372;2023-07-31T05:31:00;101044.44;;;14.08;100.00
61786;BME280;47692;53.714;11.372;2023-07-31T05:33:26;101039.16;;;14.08;100.00
61786;BME280;47692;53.714;11.372;2023-07-31T05:35:51;101044.44;;;14.08;100.00
61786;BME280;47692;53.714;11.372;2023-07-31T05:38:17;101045.38;;;14.05;100.00
61786;BME280;47692;53.714;11.372;2023-07-31T05:40:42;101037.44;;;14.07;100.00
61786;BME280;47692;53.714;11.372;2023-07-31T05:43:08;101020.91;;;14.05;100.00
61786;BME280;47692;53.714;11.372;2023-07-31T05:45:33;101067.16;;;14.09;100.00
61786;BME280;47692;53.714;11.372;2023-07-31T05:47:59;101018.94;;;14.12;100.00
61786;BME280;47692;53.714;11.372;2023-07-31T05:50:24;101003.03;;;14.16;100.00
61786;BME280;47692;53.714;11.372;2023-07-31T05:52:49;100986.59;;;14.11;100.00
61786;BME280;47692;53.714;11.372;2023-07-31T05:55:14;100988.06;;;14.18;100.00
61786;BME280;47692;53.714;11.372;2023-07-31T05:57:41;100978.53;;;14.16;100.00
61786;BME280;47692;53.714;11.372;2023-07-31T06:00:07;100975.88;;;14.17;100.00
61786;BME280;47692;53.714;11.372;2023-07-31T06:02:32;100968.78;;;14.19;100.00
61786;BME280;47692;53.714;11.372;2023-07-31T06:05:01;100956.34;;;14.25;100.00
61786;BME280;47692;53.714;11.372;2023-07-31T06:07:27;100947.78;;;14.19;100.00
61786;BME280;47692;53.714;11.372;2023-07-31T06:09:52;100952.88;;;14.24;100.00
61786;BME280;47692;53.714;11.372;2023-07-31T06:12:19;100949.91;;;14.33;100.00
61786;BME280;47692;53.714;11.372;2023-07-31T06:14:45;100948.09;;;14.35;100.00
61786;BME280;47692;53.714;11.372;2023-07-31T06:17:10;100935.13;;;14.31;100.00
61786;BME280;47692;53.714;11.372;2023-07-31T06:19:35;100933.22;;;14.36;100.00
61786;BME280;47692;53.714;11.372;2023-07-31T06:22:01;100932.25;;;14.38;100.00
61786;BME280;47692;53.714;11.372;2023-07-31T06:24:28;100911.88;;;14.45;100.00
61786;BME280;47692;53.714;11.372;2023-07-31T06:26:53;100910.06;;;14.47;100.00
61786;BME280;47692;53.714;11.372;2023-07-31T06:29:18;100906.53;;;14.48;100.00
61786;BME280;47692;53.714;11.372;2023-07-31T06:31:44;100904.59;;;14.53;100.00
61786;BME280;47692;53.714;11.372;2023-07-31T06:34:09;100899.94;;;14.60;100.00
61786;BME280;47692;53.714;11.372;2023-07-31T06:36:34;100897.47;;;14.55;100.00
61786;BME280;47692;53.714;11.372;2023-07-31T06:39:00;100891.94;;;14.65;100.00
61786;BME280;47692;53.714;11.372;2023-07-31T06:41:25;100886.69;;;14.65;100.00
61786;BME280;47692;53.714;11.372;2023-07-31T06:43:50;100874.53;;;14.61;100.00
61786;BME280;47692;53.714;11.372;2023-07-31T06:46:15;100865.84;;;14.59;100.00
61786;BME280;47692;53.714;11.372;2023-07-31T06:48:41;100863.28;;;14.57;100.00
61786;BME280;47692;53.714;11.372;2023-07-31T06:51:07;100864.00;;;14.61;100.00
61786;BME280;47692;53.714;11.372;2023-07-31T06:53:32;100850.09;;;14.59;100.00
61786;BME280;47692;53.714;11.372;2023-07-31T06:55:57;100850.84;;;14.62;100.00
61786;BME280;47692;53.714;11.372;2023-07-31T06:58:22;100848.16;;;14.64;100.00
61786;BME280;47692;53.714;11.372;2023-07-31T07:00:48;100849.84;;;14.66;100.00
61786;BME280;47692;53.714;11.372;2023-07-31T07:03:15;100858.47;;;14.70;100.00
61786;BME280;47692;53.714;11.372;2023-07-31T07:05:41;100856.50;;;14.75;100.00
61786;BME280;47692;53.714;11.372;2023-07-31T07:08:07;100856.50;;;14.75;100.00
61786;BME280;47692;53.714;11.372;2023-07-31T07:10:32;100856.44;;;14.77;100.00
61786;BME280;47692;53.714;11.372;2023-07-31T07:12:58;100866.94;;;14.77;100.00
61786;BME280;47692;53.714;11.372;2023-07-31T07:15:23;100855.59;;;14.76;100.00
61786;BME280;47692;53.714;11.372;2023-07-31T07:17:49;100873.19;;;14.74;100.00
61786;BME280;47692;53.714;11.372;2023-07-31T07:20:14;100877.31;;;14.81;100.00
61786;BME280;47692;53.714;11.372;2023-07-31T07:22:39;100864.09;;;14.83;100.00
61786;BME280;47692;53.714;11.372;2023-07-31T07:25:08;100857.94;;;14.84;100.00
61786;BME280;47692;53.714;11.372;2023-07-31T07:27:33;100855.06;;;14.90;100.00
61786;BME280;47692;53.714;11.372;2023-07-31T07:29:59;100857.63;;;14.92;100.00
61786;BME280;47692;53.714;11.372;2023-07-31T07:32:24;100850.63;;;14.92;100.00
61786;BME280;47692;53.714;11.372;2023-07-31T07:34:50;100848.97;;;14.90;100.00
61786;BME280;47692;53.714;11.372;2023-07-31T07:37:16;100721.66;;;14.95;100.00
61786;BME280;47692;53.714;11.372;2023-07-31T07:39:41;100732.19;;;14.95;100.00
61786;BME280;47692;53.714;11.372;2023-07-31T07:42:07;100739.16;;;14.96;100.00
61786;BME280;47692;53.714;11.372;2023-07-31T07:44:32;100775.84;;;14.99;100.00
61786;BME280;47692;53.714;11.372;2023-07-31T07:46:57;100857.03;;;15.07;100.00
61786;BME280;47692;53.714;11.372;2023-07-31T07:49:23;100821.94;;;15.08;100.00
61786;BME280;47692;53.714;11.372;2023-07-31T07:51:49;100818.28;;;15.12;100.00
61786;BME280;47692;53.714;11.372;2023-07-31T07:54:14;100824.25;;;15.16;100.00
61786;BME280;47692;53.714;11.372;2023-07-31T07:56:41;100814.59;;;15.16;100.00
61786;BME280;47692;53.714;11.372;2023-07-31T07:59:07;100822.47;;;15.16;100.00
61786;BME280;47692;53.714;11.372;2023-07-31T08:01:32;100813.84;;;15.13;100.00
61786;BME280;47692;53.714;11.372;2023-07-31T08:03:57;100818.13;;;15.15;100.00
61786;BME280;47692;53.714;11.372;2023-07-31T08:06:23;100814.59;;;15.16;100.00
61786;BME280;47692;53.714;11.372;2023-07-31T08:08:48;100809.31;;;15.16;100.00
61786;BME280;47692;53.714;11.372;2023-07-31T08:11:13;100812.63;;;15.22;100.00
61786;BME280;47692;53.714;11.372;2023-07-31T08:13:39;100814.22;;;15.26;100.00
61786;BME280;47692;53.714;11.372;2023-07-31T08:16:04;100816.78;;;15.27;100.00
61786;BME280;47692;53.714;11.372;2023-07-31T08:18:31;100819.50;;;15.26;100.00
61786;BME280;47692;53.714;11.372;2023-07-31T08:20:57;100806.28;;;15.27;100.00
61786;BME280;47692;53.714;11.372;2023-07-31T08:23:22;100826.75;;;15.41;100.00
61786;BME280;47692;53.714;11.372;2023-07-31T08:25:48;100813.59;;;15.41;100.00
61786;BME280;47692;53.714;11.372;2023-07-31T08:28:14;100803.06;;;15.41;100.00
61786;BME280;47692;53.714;11.372;2023-07-31T08:30:40;100796.97;;;15.41;100.00
61786;BME280;47692;53.714;11.372;2023-07-31T08:33:06;100792.34;;;15.46;100.00
61786;BME280;47692;53.714;11.372;2023-07-31T08:35:32;100788.47;;;15.55;100.00
61786;BME280;47692;53.714;11.372;2023-07-31T08:37:57;100791.09;;;15.55;100.00
61786;BME280;47692;53.714;11.372;2023-07-31T08:40:22;100776.13;;;15.57;100.00
61786;BME280;47692;53.714;11.372;2023-07-31T08:42:49;100775.00;;;15.62;100.00
61786;BME280;47692;53.714;11.372;2023-07-31T08:45:17;100755.28;;;15.73;100.00
61786;BME280;47692;53.714;11.372;2023-07-31T08:47:49;100761.50;;;15.70;100.00
61786;BME280;47692;53.714;11.372;2023-07-31T08:50:15;100749.94;;;15.74;100.00
61786;BME280;47692;53.714;11.372;2023-07-31T08:57:52;100740.97;;;15.99;100.00
61786;BME280;47692;53.714;11.372;2023-07-31T09:00:20;100746.03;;;16.23;100.00
61786;BME280;47692;53.714;11.372;2023-07-31T09:02:54;100753.94;;;16.23;100.00
61786;BME280;47692;53.714;11.372;2023-07-31T09:05:21;100741.69;;;16.22;100.00
61786;BME280;47692;53.714;11.372;2023-07-31T09:07:47;100727.31;;;16.29;100.00
61786;BME280;47692;53.714;11.372;2023-07-31T09:10:14;100720.19;;;16.31;100.00
61786;BME280;47692;53.714;11.372;2023-07-31T09:12:40;100721.91;;;16.32;100.00
61786;BME280;47692;53.714;11.372;2023-07-31T09:15:06;100728.47;;;16.42;100.00
61786;BME280;47692;53.714;11.372;2023-07-31T09:17:33;100730.94;;;16.45;100.00
61786;BME280;47692;53.714;11.372;2023-07-31T09:20:16;100735.28;;;16.46;100.00
61786;BME280;47692;53.714;11.372;2023-07-31T09:22:43;100724.88;;;16.43;100.00
61786;BME280;47692;53.714;11.372;2023-07-31T09:25:15;100724.59;;;16.50;100.00
61786;BME280;47692;53.714;11.372;2023-07-31T09:27:50;100725.28;;;16.53;100.00
61786;BME280;47692;53.714;11.372;2023-07-31T09:30:19;100724.59;;;16.50;100.00
61786;BME280;47692;53.714;11.372;2023-07-31T09:32:45;100719.31;;;16.50;100.00
61786;BME280;47692;53.714;11.372;2023-07-31T09:35:20;100707.38;;;16.42;100.00
61786;BME280;47692;53.714;11.372;2023-07-31T09:37:54;100695.19;;;16.40;100.00
61786;BME280;47692;53.714;11.372;2023-07-31T09:40:27;100696.38;;;16.52;100.00
61786;BME280;47692;53.714;11.372;2023-07-31T09:42:57;100693.53;;;16.56;100.00
61786;BME280;47692;53.714;11.372;2023-07-31T09:45:24;100686.63;;;16.54;100.00
61786;BME280;47692;53.714;11.372;2023-07-31T09:47:49;100672.47;;;16.56;100.00
61786;BME280;47692;53.714;11.372;2023-07-31T09:50:15;100673.00;;;16.63;100.00
61786;BME280;47692;53.714;11.372;2023-07-31T09:52:43;100663.47;;;16.60;100.00
61786;BME280;47692;53.714;11.372;2023-07-31T09:55:09;100659.38;;;16.55;100.00
61786;BME280;47692;53.714;11.372;2023-07-31T09:57:45;100704.59;;;16.45;100.00
61786;BME280;47692;53.714;11.372;2023-07-31T10:00:12;100660.53;;;16.30;100.00
61786;BME280;47692;53.714;11.372;2023-07-31T10:02:39;100657.25;;;16.25;100.00
61786;BME280;47692;53.714;11.372;2023-07-31T10:05:05;100653.97;;;16.20;100.00
61786;BME280;47692;53.714;11.372;2023-07-31T10:07:36;100653.69;;;16.26;100.00
61786;BME280;47692;53.714;11.372;2023-07-31T10:10:03;100653.84;;;16.23;100.00
61786;BME280;47692;53.714;11.372;2023-07-31T10:12:29;100635.53;;;16.20;100.00
61786;BME280;47692;53.714;11.372;2023-07-31T10:14:55;100632.16;;;16.18;100.00
61786;BME280;47692;53.714;11.372;2023-07-31T10:17:22;100627.09;;;16.13;100.00
61786;BME280;47692;53.714;11.372;2023-07-31T10:19:49;100626.22;;;16.12;100.00
61786;BME280;47692;53.714;11.372;2023-07-31T10:22:14;100611.28;;;16.13;100.00
61786;BME280;47692;53.714;11.372;2023-07-31T10:24:42;100618.97;;;16.18;100.00
61786;BME280;47692;53.714;11.372;2023-07-31T10:27:09;100608.88;;;16.27;100.00
61786;BME280;47692;53.714;11.372;2023-07-31T10:29:36;100612.53;;;16.42;100.00
61786;BME280;47692;53.714;11.372;2023-07-31T10:32:03;100609.25;;;16.37;100.00
61786;BME280;47692;53.714;11.372;2023-07-31T10:34:33;100594.69;;;16.30;100.00
61786;BME280;47692;53.714;11.372;2023-07-31T10:37:22;100592.06;;;16.30;100.00
61786;BME280;47692;53.714;11.372;2023-07-31T10:42:28;100590.63;;;16.23;100.00
61786;BME280;47692;53.714;11.372;2023-07-31T10:44:58;100586.59;;;16.15;100.00
61786;BME280;47692;53.714;11.372;2023-07-31T10:47:24;100591.06;;;16.13;100.00
61786;BME280;47692;53.714;11.372;2023-07-31T10:49:50;100575.44;;;16.10;100.00
61786;BME280;47692;53.714;11.372;2023-07-31T10:52:20;100572.50;;;16.17;100.00
61786;BME280;47692;53.714;11.372;2023-07-31T10:54:49;100571.88;;;16.11;100.00
61786;BME280;47692;53.714;11.372;2023-07-31T10:57:22;100569.19;;;15.94;100.00
61786;BME280;47692;53.714;11.372;2023-07-31T10:59:48;100567.19;;;15.99;100.00
61786;BME280;47692;53.714;11.372;2023-07-31T11:02:27;100554.16;;;15.96;100.00
61786;BME280;47692;53.714;11.372;2023-07-31T11:05:08;100560.50;;;15.92;100.00
61786;BME280;47692;53.714;11.372;2023-07-31T11:07:47;100550.81;;;15.92;100.00
61786;BME280;47692;53.714;11.372;2023-07-31T11:10:16;100559.22;;;15.81;100.00
61786;BME280;47692;53.714;11.372;2023-07-31T11:12:42;100554.88;;;15.80;100.00
61786;BME280;47692;53.714;11.372;2023-07-31T11:15:08;100551.06;;;15.88;100.00
61786;BME280;47692;53.714;11.372;2023-07-31T11:17:33;100543.56;;;15.78;100.00
61786;BME280;47692;53.714;11.372;2023-07-31T11:19:58;100543.41;;;15.81;100.00
61786;BME280;47692;53.714;11.372;2023-07-31T11:22:24;100538.16;;;15.81;100.00
61786;BME280;47692;53.714;11.372;2023-07-31T11:24:49;100521.88;;;15.73;100.00
61786;BME280;47692;53.714;11.372;2023-07-31T11:27:14;100522.78;;;15.72;100.00
61786;BME280;47692;53.714;11.372;2023-07-31T11:29:40;100542.47;;;15.84;100.00
61786;BME280;47692;53.714;11.372;2023-07-31T11:32:15;100520.41;;;15.87;100.00
61786;BME280;47692;53.714;11.372;2023-07-31T11:34:55;100516.38;;;15.97;100.00
61786;BME280;47692;53.714;11.372;2023-07-31T11:37:20;100512.34;;;15.90;100.00
61786;BME280;47692;53.714;11.372;2023-07-31T11:39:59;100522.72;;;15.93;100.00
61786;BME280;47692;53.714;11.372;2023-07-31T11:42:25;100520.81;;;15.96;100.00
61786;BME280;47692;53.714;11.372;2023-07-31T11:44:50;100511.13;;;15.97;100.00
61786;BME280;47692;53.714;11.372;2023-07-31T11:47:16;100521.34;;;16.03;100.00
61786;BME280;47692;53.714;11.372;2023-07-31T11:49:42;100519.63;;;16.02;100.00
61786;BME280;47692;53.714;11.372;2023-07-31T11:52:08;100509.09;;;16.02;100.00
61786;BME280;47692;53.714;11.372;2023-07-31T11:54:34;100507.19;;;16.06;100.00
61786;BME280;47692;53.714;11.372;2023-07-31T11:57:00;100499.75;;;15.96;100.00
61786;BME280;47692;53.714;11.372;2023-07-31T11:59:26;100496.25;;;15.96;100.00
61786;BME280;47692;53.714;11.372;2023-07-31T12:01:52;100500.38;;;16.02;100.00
61786;BME280;47692;53.714;11.372;2023-07-31T12:04:21;100496.88;;;16.01;100.00
61786;BME280;47692;53.714;11.372;2023-07-31T12:06:47;100503.69;;;16.05;100.00
61786;BME280;47692;53.714;11.372;2023-07-31T12:09:14;100502.53;;;16.11;100.00
61786;BME280;47692;53.714;11.372;2023-07-31T12:11:46;100703.66;;;16.08;100.00
61786;BME280;47692;53.714;11.372;2023-07-31T12:14:24;100552.47;;;16.12;100.00
61786;BME280;47692;53.714;11.372;2023-07-31T12:16:54;100666.53;;;16.14;100.00
61786;BME280;47692;53.714;11.372;2023-07-31T12:19:19;100620.81;;;16.15;100.00
61786;BME280;47692;53.714;11.372;2023-07-31T12:21:45;100576.47;;;16.25;100.00
61786;BME280;47692;53.714;11.372;2023-07-31T12:24:10;100572.34;;;16.37;100.00
61786;BME280;47692;53.714;11.372;2023-07-31T12:26:35;100561.50;;;16.43;100.00
61786;BME280;47692;53.714;11.372;2023-07-31T12:29:01;100552.28;;;16.52;100.00
61786;BME280;47692;53.714;11.372;2023-07-31T12:31:28;100557.81;;;16.65;100.00
61786;BME280;47692;53.714;11.372;2023-07-31T12:33:55;100547.59;;;16.59;100.00
61786;BME280;47692;53.714;11.372;2023-07-31T12:36:23;100545.88;;;16.58;100.00
61786;BME280;47692;53.714;11.372;2023-07-31T12:38:52;100537.03;;;16.59;100.00
61786;BME280;47692;53.714;11.372;2023-07-31T12:41:18;100534.25;;;16.62;100.00
61786;BME280;47692;53.714;11.372;2023-07-31T12:43:45;100527.13;;;16.64;100.00